Time;durP1;ratioP1;P1;durP2;ratioP2;P2;SDS_P1;SDS_P2;PMS_P1;PMS_P2;Temp;Humidity;BMP_temperature;BMP_pressure;BME280_temperature;BME280_humidity;BME280_pressure;Samples;Min_cycle;Max_cycle;Signal;HPM_P1;HPM_P2
2022/06/06 00:00:08;;;;;;;0.20;0.20;;;23.30;50.40;;;;;;6276628;28;20159;-51
2022/06/06 00:03:18;;;;;;;0.30;0.30;;;23.10;50.30;;;;;;6278778;28;20083;-49
2022/06/06 00:06:21;;;;;;;0.30;0.28;;;23.20;50.40;;;;;;6276289;28;21136;-50
2022/06/06 00:09:24;;;;;;;0.50;0.30;;;23.10;50.50;;;;;;6276877;28;20048;-50
2022/06/06 00:12:27;;;;;;;0.85;0.40;;;23.10;50.40;;;;;;6278142;28;20223;-52
2022/06/06 00:15:29;;;;;;;0.20;0.20;;;23.20;50.40;;;;;;6272460;28;20047;-49
2022/06/06 00:18:31;;;;;;;0.28;0.20;;;23.20;50.50;;;;;;6275456;28;20044;-50
2022/06/06 00:21:33;;;;;;;0.50;0.28;;;23.20;50.50;;;;;;6272412;28;20036;-50
2022/06/06 00:24:36;;;;;;;0.38;0.38;;;23.20;50.40;;;;;;6277814;28;21237;-51
2022/06/06 00:27:37;;;;;;;0.30;0.28;;;23.20;50.40;;;;;;6272892;28;20950;-49
2022/06/06 00:30:39;;;;;;;0.30;0.20;;;23.20;50.40;;;;;;6276489;28;20055;-51
2022/06/06 00:36:54;;;;;;;0.17;0.13;;;23.10;50.40;;;;;;6277988;28;20071;-51
2022/06/06 00:39:57;;;;;;;;;;;23.00;50.30;;;;;;6282692;28;20159;-49
2022/06/06 00:43:00;;;;;;;0.17;0.17;;;23.10;50.40;;;;;;6278154;28;20825;-52
2022/06/06 00:46:01;;;;;;;0.40;0.30;;;23.00;50.30;;;;;;6276793;28;20155;-52
2022/06/06 00:49:06;;;;;;;0.20;0.20;;;23.10;50.30;;;;;;6278399;28;20153;-50
2022/06/06 00:52:11;;;;;;;0.10;0.10;;;23.30;50.40;;;;;;6278583;28;20054;-51
2022/06/06 00:55:18;;;;;;;0.17;0.10;;;22.90;50.30;;;;;;6278493;28;20145;-50
2022/06/06 00:58:23;;;;;;;0.20;0.20;;;23.10;50.30;;;;;;6268143;28;20089;-48
2022/06/06 01:01:26;;;;;;;0.22;0.10;;;23.10;50.30;;;;;;6251318;28;20381;-50
2022/06/06 01:04:29;;;;;;;0.20;0.20;;;23.10;50.30;;;;;;6263594;28;20043;-48
2022/06/06 01:07:31;;;;;;;0.10;0.10;;;23.10;50.30;;;;;;6259083;28;20043;-49
2022/06/06 01:10:34;;;;;;;0.20;0.20;;;23.20;50.40;;;;;;6261557;28;21101;-50
2022/06/06 01:13:39;;;;;;;0.20;0.20;;;23.10;50.30;;;;;;6263640;28;20108;-49
2022/06/06 01:16:48;;;;;;;0.30;0.20;;;23.10;50.20;;;;;;6259920;28;20309;-46
2022/06/06 01:20:01;;;;;;;0.10;0.10;;;23.10;50.20;;;;;;6261936;28;20363;-48
2022/06/06 01:23:25;;;;;;;0.15;0.15;;;23.00;50.10;;;;;;6262410;28;20432;-48
2022/06/06 01:26:42;;;;;;;0.20;0.20;;;23.00;50.10;;;;;;6263258;28;20334;-49
2022/06/06 01:29:50;;;;;;;0.10;0.10;;;23.00;50.10;;;;;;6265698;28;20394;-47
2022/06/06 01:32:54;;;;;;;0.25;0.10;;;23.10;50.10;;;;;;6263014;28;20039;-50
2022/06/06 01:36:01;;;;;;;0.20;0.20;;;23.00;50.10;;;;;;6257764;28;20593;-51
2022/06/06 01:39:06;;;;;;;0.30;0.10;;;22.90;50.00;;;;;;6260916;28;20334;-51
2022/06/06 01:42:13;;;;;;;0.10;0.10;;;22.90;49.90;;;;;;6260796;28;20298;-49
2022/06/06 01:45:26;;;;;;;0.20;0.10;;;22.90;49.90;;;;;;6251577;28;20047;-49
2022/06/06 01:48:34;;;;;;;0.22;0.20;;;22.90;49.90;;;;;;6258437;28;20155;-49
2022/06/06 01:51:35;;;;;;;0.30;0.20;;;23.00;49.90;;;;;;6261794;28;20267;-48
2022/06/06 01:54:37;;;;;;;0.10;0.10;;;22.90;49.80;;;;;;6266933;28;20302;-51
2022/06/06 01:57:39;;;;;;;0.10;0.10;;;23.00;49.80;;;;;;6259252;28;20146;-50
2022/06/06 02:00:41;;;;;;;0.10;0.10;;;23.20;50.00;;;;;;6261165;28;20126;-49
2022/06/06 02:03:43;;;;;;;0.10;0.10;;;23.00;49.80;;;;;;6260106;28;20811;-48
2022/06/06 02:06:46;;;;;;;0.10;0.10;;;23.00;49.80;;;;;;6262832;28;20087;-47
2022/06/06 02:09:47;;;;;;;0.20;0.10;;;22.90;49.70;;;;;;6256235;28;20156;-51
2022/06/06 02:12:48;;;;;;;;;;;22.90;49.70;;;;;;6259845;28;20211;-47
2022/06/06 02:15:51;;;;;;;0.10;0.10;;;22.90;49.70;;;;;;6259628;28;20124;-47
2022/06/06 02:18:53;;;;;;;0.20;0.20;;;23.00;49.70;;;;;;6260835;28;20379;-49
2022/06/06 02:21:55;;;;;;;0.10;0.10;;;23.00;49.60;;;;;;6261824;28;20055;-50
2022/06/06 02:24:56;;;;;;;0.15;0.13;;;23.00;49.60;;;;;;6262197;28;20259;-48
2022/06/06 02:27:58;;;;;;;0.10;0.10;;;22.90;49.60;;;;;;6260996;28;20409;-48
2022/06/06 02:31:00;;;;;;;0.20;0.20;;;22.90;49.60;;;;;;6260352;28;20927;-48
2022/06/06 02:34:02;;;;;;;0.10;0.10;;;22.80;49.50;;;;;;6260787;28;20070;-48
2022/06/06 02:37:05;;;;;;;0.25;0.17;;;22.90;49.40;;;;;;6261553;28;20501;-49
2022/06/06 02:40:09;;;;;;;0.20;0.20;;;23.00;49.50;;;;;;6262380;28;20043;-50
2022/06/06 02:43:12;;;;;;;0.20;0.10;;;22.90;49.40;;;;;;6260133;28;20040;-50
2022/06/06 02:46:15;;;;;;;0.10;0.10;;;22.90;49.40;;;;;;6248251;28;20056;-48
2022/06/06 02:49:17;;;;;;;0.22;0.20;;;22.90;49.30;;;;;;6263379;28;20397;-49
2022/06/06 02:52:18;;;;;;;0.22;0.22;;;22.90;49.30;;;;;;6260009;28;20052;-50
2022/06/06 02:55:20;;;;;;;0.25;0.15;;;22.90;49.30;;;;;;6267622;28;20044;-48
2022/06/06 02:58:23;;;;;;;0.10;0.10;;;22.70;49.20;;;;;;6269179;28;20135;-50
2022/06/06 03:01:25;;;;;;;0.10;0.10;;;23.00;49.30;;;;;;6266484;28;20075;-49
2022/06/06 03:04:27;;;;;;;0.20;0.20;;;22.90;49.30;;;;;;6267091;28;20182;-48
2022/06/06 03:07:40;;;;;;;0.10;0.10;;;22.70;49.20;;;;;;6262976;28;20673;-46
2022/06/06 03:10:55;;;;;;;0.20;0.20;;;22.90;49.30;;;;;;6265537;28;20281;-54
2022/06/06 03:14:14;;;;;;;0.25;0.10;;;22.90;49.30;;;;;;6267306;28;20067;-47
2022/06/06 03:21:08;;;;;;;0.20;0.20;;;23.00;49.30;;;;;;6270226;28;20468;-49
2022/06/06 03:24:21;;;;;;;0.20;0.10;;;22.60;49.20;;;;;;6268597;28;20287;-49
2022/06/06 03:27:30;;;;;;;0.40;0.30;;;23.00;49.40;;;;;;6260250;28;20078;-48
2022/06/06 03:30:40;;;;;;;0.20;0.20;;;22.90;49.40;;;;;;6266512;28;20155;-47
2022/06/06 03:33:52;;;;;;;0.10;0.10;;;22.90;49.30;;;;;;6261689;28;20401;-50
2022/06/06 03:37:02;;;;;;;0.35;0.10;;;22.80;49.30;;;;;;6267506;28;20520;-49
2022/06/06 03:40:12;;;;;;;1.25;0.20;;;22.80;49.30;;;;;;6269091;28;20225;-52
2022/06/06 03:43:25;;;;;;;0.10;0.10;;;22.80;49.30;;;;;;6252844;28;20103;-51
2022/06/06 03:46:33;;;;;;;0.28;0.20;;;22.80;49.30;;;;;;6256776;28;20162;-52
2022/06/06 03:49:45;;;;;;;0.13;0.13;;;22.90;49.40;;;;;;6259966;28;20381;-51
2022/06/06 03:52:53;;;;;;;0.10;0.10;;;22.80;49.30;;;;;;6261505;28;20601;-50
2022/06/06 03:56:07;;;;;;;0.85;0.20;;;22.70;49.20;;;;;;6274679;28;20132;-53
2022/06/06 03:59:10;;;;;;;0.20;0.20;;;22.90;49.30;;;;;;6274175;28;20048;-52
2022/06/06 04:02:16;;;;;;;0.28;0.20;;;22.70;49.30;;;;;;6279040;28;20164;-49
2022/06/06 04:05:20;;;;;;;0.10;0.10;;;22.80;49.30;;;;;;6279773;28;20794;-51
2022/06/06 04:08:21;;;;;;;0.10;0.10;;;22.80;49.30;;;;;;6268694;28;20047;-49
2022/06/06 04:11:37;;;;;;;0.10;0.10;;;22.80;49.20;;;;;;6258178;28;20051;-53
2022/06/06 04:14:49;;;;;;;0.20;0.13;;;22.80;49.20;;;;;;6262760;28;20363;-51
2022/06/06 04:18:05;;;;;;;0.20;0.20;;;22.80;49.20;;;;;;6261935;28;20460;-52
2022/06/06 04:21:22;;;;;;;0.22;0.10;;;22.80;49.20;;;;;;6265439;28;20647;-47
2022/06/06 04:24:36;;;;;;;0.45;0.10;;;22.70;49.20;;;;;;6265005;28;20557;-51
2022/06/06 04:27:46;;;;;;;0.10;0.10;;;22.80;49.20;;;;;;6261645;28;20590;-48
2022/06/06 04:31:00;;;;;;;0.30;0.10;;;22.70;49.10;;;;;;6260777;28;20356;-50
2022/06/06 04:34:11;;;;;;;0.15;0.15;;;22.60;49.10;;;;;;6260527;28;20162;-51
2022/06/06 04:37:20;;;;;;;0.10;0.10;;;22.70;49.10;;;;;;6260478;28;20046;-49
2022/06/06 04:40:35;;;;;;;0.10;0.10;;;22.60;49.00;;;;;;6261852;28;20980;-51
2022/06/06 04:43:43;;;;;;;0.22;0.20;;;22.80;49.10;;;;;;6262529;28;20051;-49
2022/06/06 04:46:52;;;;;;;0.13;0.13;;;22.70;49.00;;;;;;6262575;28;20023;-49
2022/06/06 04:49:56;;;;;;;0.10;0.10;;;22.70;49.00;;;;;;6256602;28;20414;-49
2022/06/06 04:53:06;;;;;;;0.20;0.20;;;22.60;49.10;;;;;;6259572;28;20047;-51
2022/06/06 04:56:08;;;;;;;0.68;0.10;;;22.70;49.10;;;;;;6262377;28;20259;-50
2022/06/06 04:59:11;;;;;;;0.10;0.10;;;22.70;49.10;;;;;;6262569;28;20160;-49
2022/06/06 05:02:14;;;;;;;0.30;0.30;;;22.60;49.10;;;;;;6256814;28;20529;-53
2022/06/06 05:05:16;;;;;;;0.15;0.15;;;22.70;49.10;;;;;;6268012;28;20741;-52
2022/06/06 05:08:32;;;;;;;0.17;0.15;;;22.70;49.20;;;;;;6262037;28;20594;-52
2022/06/06 05:11:44;;;;;;;0.10;0.10;;;22.80;49.20;;;;;;6260875;28;20583;-49
2022/06/06 05:15:03;;;;;;;0.10;0.10;;;22.70;49.20;;;;;;6262456;28;20048;-48
2022/06/06 05:18:22;;;;;;;0.20;0.20;;;22.70;49.20;;;;;;6260932;28;20358;-52
2022/06/06 05:21:40;;;;;;;0.20;0.10;;;22.60;49.20;;;;;;6264410;28;20082;-49
2022/06/06 05:25:00;;;;;;;0.20;0.20;;;22.60;49.20;;;;;;6258173;28;20831;-49
2022/06/06 05:28:24;;;;;;;0.20;0.10;;;22.70;49.30;;;;;;6262839;28;20105;-50
2022/06/06 05:31:45;;;;;;;0.20;0.20;;;22.70;49.40;;;;;;6259220;28;20196;-48
2022/06/06 05:34:51;;;;;;;0.10;0.10;;;22.60;49.40;;;;;;6258103;28;20745;-53
2022/06/06 05:38:03;;;;;;;0.40;0.20;;;22.70;49.50;;;;;;6266125;28;20301;-49
2022/06/06 05:41:14;;;;;;;0.17;0.13;;;22.60;49.50;;;;;;6254594;28;20264;-49
2022/06/06 05:44:25;;;;;;;0.10;0.10;;;22.60;49.50;;;;;;6257344;28;20076;-48
2022/06/06 05:47:35;;;;;;;0.20;0.20;;;22.60;49.50;;;;;;6243665;28;20882;-50
2022/06/06 05:50:49;;;;;;;0.10;0.10;;;22.70;49.60;;;;;;6253794;28;20044;-50
2022/06/06 05:54:07;;;;;;;0.20;0.20;;;22.70;49.60;;;;;;6269620;28;20565;-53
2022/06/06 05:57:27;;;;;;;0.20;0.20;;;22.70;49.70;;;;;;6259868;28;20348;-49
2022/06/06 06:00:41;;;;;;;0.30;0.20;;;22.70;49.70;;;;;;6257090;28;20474;-51
2022/06/06 06:04:00;;;;;;;0.10;0.10;;;22.80;49.70;;;;;;6248445;28;20181;-49
2022/06/06 06:07:12;;;;;;;0.10;0.10;;;22.70;49.70;;;;;;6251254;28;20388;-51
2022/06/06 06:10:20;;;;;;;0.20;0.10;;;22.70;49.70;;;;;;6254480;28;20040;-54
2022/06/06 06:13:37;;;;;;;0.30;0.20;;;22.70;49.70;;;;;;6256362;28;20218;-55
2022/06/06 06:16:45;;;;;;;0.20;0.20;;;22.80;49.80;;;;;;6257486;28;20046;-52
2022/06/06 06:19:53;;;;;;;0.10;0.10;;;22.80;49.80;;;;;;6247152;28;20525;-52
2022/06/06 06:22:58;;;;;;;0.10;0.10;;;22.90;49.90;;;;;;6251160;28;20040;-51
2022/06/06 06:26:03;;;;;;;0.13;0.13;;;22.90;49.90;;;;;;6269180;28;20043;-53
2022/06/06 06:29:09;;;;;;;0.20;0.20;;;22.80;49.90;;;;;;6266732;28;20083;-50
2022/06/06 06:32:28;;;;;;;0.10;0.10;;;22.80;50.00;;;;;;6266045;28;20381;-54
2022/06/06 06:35:39;;;;;;;0.20;0.20;;;22.80;50.00;;;;;;6248301;28;20071;-52
2022/06/06 06:39:00;;;;;;;0.20;0.10;;;22.90;50.10;;;;;;6242248;28;20566;-53
2022/06/06 06:42:19;;;;;;;0.10;0.10;;;22.90;50.20;;;;;;6246245;28;20841;-50
2022/06/06 06:45:23;;;;;;;0.17;0.17;;;22.90;50.20;;;;;;6241192;28;20610;-50
2022/06/06 06:48:33;;;;;;;0.20;0.10;;;22.50;50.10;;;;;;6251736;28;20338;-50
2022/06/06 06:51:41;;;;;;;0.30;0.15;;;22.80;50.30;;;;;;6242706;28;20176;-52
2022/06/06 06:55:06;;;;;;;0.15;0.10;;;22.90;50.40;;;;;;6245714;28;20066;-52
2022/06/06 06:58:20;;;;;;;0.10;0.10;;;23.00;50.50;;;;;;6248593;28;20363;-51
2022/06/06 07:01:33;;;;;;;0.30;0.20;;;22.90;50.50;;;;;;6253932;28;20389;-52
2022/06/06 07:11:39;;;;;;;0.30;0.15;;;23.00;50.80;;;;;;6242555;28;20054;-52
2022/06/06 07:15:02;;;;;;;0.35;0.20;;;23.10;50.80;;;;;;6245325;28;20154;-49
2022/06/06 07:18:06;;;;;;;0.40;0.20;;;23.00;50.80;;;;;;6238143;28;20053;-51
2022/06/06 07:21:09;;;;;;;0.30;0.20;;;23.00;50.90;;;;;;6240495;28;20864;-49
2022/06/06 07:24:15;;;;;;;0.13;0.13;;;22.90;50.80;;;;;;6247899;28;21040;-49
2022/06/06 07:27:16;;;;;;;0.10;0.10;;;23.00;51.00;;;;;;6246762;28;20290;-49
2022/06/06 07:30:21;;;;;;;0.20;0.20;;;22.90;50.90;;;;;;6251748;28;20212;-53
2022/06/06 07:33:38;;;;;;;0.20;0.20;;;23.00;51.00;;;;;;6246480;28;20088;-49
2022/06/06 07:36:54;;;;;;;0.60;0.20;;;23.00;51.30;;;;;;6246686;28;20617;-49
2022/06/06 07:40:06;;;;;;;0.60;0.17;;;22.90;51.00;;;;;;6245844;28;20341;-49
2022/06/06 07:43:24;;;;;;;0.10;0.10;;;23.20;51.20;;;;;;6256012;28;20376;-51
2022/06/06 07:46:38;;;;;;;0.30;0.20;;;22.90;51.10;;;;;;6251263;28;20943;-51
2022/06/06 07:49:52;;;;;;;0.25;0.10;;;23.00;51.10;;;;;;6244465;28;20341;-51
2022/06/06 07:53:03;;;;;;;0.10;0.10;;;23.00;51.10;;;;;;6251909;28;20506;-52
2022/06/06 07:56:12;;;;;;;0.10;0.00;;;22.90;51.00;;;;;;6245650;28;20803;-53
2022/06/06 07:59:28;;;;;;;0.25;0.17;;;23.10;51.10;;;;;;6255711;28;20053;-49
2022/06/06 08:02:51;;;;;;;0.30;0.15;;;23.10;51.00;;;;;;6267552;27;20047;-50
2022/06/06 08:06:10;;;;;;;0.13;0.13;;;23.20;51.00;;;;;;6250057;28;20036;-49
2022/06/06 08:09:25;;;;;;;0.13;0.10;;;23.10;50.90;;;;;;6251426;28;20871;-51
2022/06/06 08:12:39;;;;;;;0.20;0.20;;;23.10;50.80;;;;;;6251026;28;20154;-51
2022/06/06 08:15:55;;;;;;;0.25;0.20;;;23.10;50.70;;;;;;6250744;28;20404;-51
2022/06/06 08:19:17;;;;;;;0.20;0.13;;;23.00;50.60;;;;;;6267629;28;21108;-50
2022/06/06 08:22:21;;;;;;;;;;;23.20;50.70;;;;;;6273691;28;20225;-53
2022/06/06 08:25:23;;;;;;;0.10;0.10;;;23.20;50.60;;;;;;6269783;28;19984;-53
2022/06/06 08:28:26;;;;;;;0.10;0.10;;;23.20;50.60;;;;;;6264960;28;20082;-55
2022/06/06 08:31:28;;;;;;;0.40;0.28;;;23.20;50.40;;;;;;6264950;28;20050;-47
2022/06/06 08:34:29;;;;;;;0.10;0.10;;;23.20;50.40;;;;;;6261253;28;20057;-51
2022/06/06 08:37:48;;;;;;;0.40;0.20;;;23.20;50.40;;;;;;6266738;28;21148;-50
2022/06/06 08:41:05;;;;;;;0.30;0.10;;;23.00;50.20;;;;;;6270999;28;20048;-50
2022/06/06 08:44:27;;;;;;;0.10;0.10;;;23.20;50.20;;;;;;6258851;28;20047;-52
2022/06/06 08:47:34;;;;;;;0.10;0.10;;;23.20;50.20;;;;;;6241944;28;20052;-53
2022/06/06 08:50:56;;;;;;;0.10;0.10;;;23.30;50.20;;;;;;6269320;28;20058;-52
2022/06/06 08:54:30;;;;;;;0.10;0.10;;;23.30;50.10;;;;;;6271111;28;20043;-53
2022/06/06 08:57:51;;;;;;;0.20;0.10;;;23.30;50.00;;;;;;6252083;28;20333;-51
2022/06/06 09:00:56;;;;;;;;;;;23.20;49.90;;;;;;6250673;28;20197;-49
2022/06/06 09:04:24;;;;;;;0.10;0.10;;;23.30;49.90;;;;;;6258431;28;20055;-52
2022/06/06 09:07:54;;;;;;;0.20;0.20;;;23.30;49.70;;;;;;6264031;28;20046;-53
2022/06/06 09:11:23;;;;;;;0.15;0.10;;;23.30;49.60;;;;;;6239970;28;20110;-52
2022/06/06 09:14:46;;;;;;;0.13;0.10;;;23.40;49.50;;;;;;6242761;28;20075;-50
2022/06/06 09:18:17;;;;;;;0.03;0.03;;;23.30;49.20;;;;;;6251570;28;20051;-51
2022/06/06 09:21:42;;;;;;;0.43;0.20;;;23.40;49.10;;;;;;6249002;28;20356;-51
2022/06/06 09:25:10;;;;;;;0.10;0.10;;;23.30;49.00;;;;;;6247564;28;20304;-51
2022/06/06 09:28:36;;;;;;;0.00;0.00;;;23.40;48.80;;;;;;6251532;28;20044;-51
2022/06/06 09:31:58;;;;;;;0.10;0.10;;;23.30;48.70;;;;;;6250774;28;20174;-51
2022/06/06 09:35:19;;;;;;;0.10;0.10;;;23.40;48.70;;;;;;6251477;28;20734;-50
2022/06/06 09:38:45;;;;;;;0.22;0.20;;;23.50;48.60;;;;;;6246632;28;20613;-51
2022/06/06 09:41:58;;;;;;;0.10;0.10;;;23.60;48.60;;;;;;6249922;28;20079;-51
2022/06/06 09:45:26;;;;;;;0.10;0.10;;;23.40;48.40;;;;;;6248519;28;20042;-51
2022/06/06 09:48:46;;;;;;;0.10;0.10;;;23.50;48.30;;;;;;6246578;28;20715;-51
2022/06/06 09:52:15;;;;;;;0.20;0.10;;;23.50;48.20;;;;;;6246741;28;20342;-50
2022/06/06 09:59:25;;;;;;;0.65;0.20;;;23.50;48.00;;;;;;6249381;28;20056;-50
2022/06/06 10:02:42;;;;;;;;;;;23.70;48.00;;;;;;6251553;28;20048;-51
2022/06/06 10:06:08;;;;;;;0.20;0.13;;;23.60;47.90;;;;;;6243271;28;20288;-51
2022/06/06 10:09:39;;;;;;;0.32;0.10;;;23.60;47.80;;;;;;6249045;28;20404;-50
2022/06/06 10:12:59;;;;;;;0.13;0.13;;;23.70;47.70;;;;;;6245897;28;20375;-49
2022/06/06 10:16:21;;;;;;;0.20;0.10;;;23.60;47.40;;;;;;6233642;28;20056;-49
2022/06/06 10:19:45;;;;;;;0.28;0.10;;;23.60;47.20;;;;;;6251825;28;20890;-53
2022/06/06 10:23:02;;;;;;;0.15;0.10;;;23.60;47.10;;;;;;6248175;28;20202;-51
2022/06/06 10:26:27;;;;;;;0.20;0.20;;;23.60;46.90;;;;;;6242678;28;20150;-53
2022/06/06 10:33:34;;;;;;;0.10;0.10;;;23.60;46.80;;;;;;6252182;28;20411;-51
2022/06/06 10:36:51;;;;;;;0.10;0.10;;;23.60;46.60;;;;;;6253725;28;20098;-51
2022/06/06 10:40:11;;;;;;;0.30;0.20;;;23.60;46.50;;;;;;6248083;28;20104;-48
2022/06/06 10:43:32;;;;;;;0.20;0.17;;;23.50;46.30;;;;;;6251778;28;20274;-52
2022/06/06 10:46:51;;;;;;;0.20;0.10;;;23.60;46.30;;;;;;6252528;28;20055;-53
2022/06/06 10:50:01;;;;;;;0.10;0.10;;;23.70;46.30;;;;;;6252030;28;20159;-52
2022/06/06 10:53:27;;;;;;;0.10;0.10;;;23.70;46.10;;;;;;6248515;28;20260;-52
2022/06/06 10:57:01;;;;;;;0.47;0.20;;;23.80;46.00;;;;;;6251418;28;20283;-50
2022/06/06 11:00:12;;;;;;;0.20;0.20;;;23.70;45.70;;;;;;6255712;28;20794;-49
2022/06/06 11:03:30;;;;;;;0.20;0.20;;;23.70;45.60;;;;;;6252401;28;20063;-52
2022/06/06 11:06:54;;;;;;;0.20;0.20;;;23.70;45.50;;;;;;6250875;28;20381;-51
2022/06/06 11:10:19;;;;;;;0.10;0.10;;;23.70;45.40;;;;;;6249604;28;21016;-51
2022/06/06 11:13:31;;;;;;;0.32;0.10;;;23.70;45.40;;;;;;6255447;28;20599;-50
2022/06/06 11:16:55;;;;;;;0.20;0.10;;;23.70;45.40;;;;;;6257091;28;20766;-49
2022/06/06 11:20:22;;;;;;;0.38;0.38;;;23.70;45.40;;;;;;6258033;28;20068;-48
2022/06/06 11:23:30;;;;;;;0.10;0.10;;;23.80;45.50;;;;;;6257961;28;20098;-51
2022/06/06 11:27:01;;;;;;;0.10;0.10;;;23.80;45.50;;;;;;6255985;28;20619;-50
2022/06/06 11:30:13;;;;;;;0.13;0.10;;;23.80;45.50;;;;;;6258979;28;20147;-52
2022/06/06 11:33:36;;;;;;;0.30;0.10;;;23.80;45.70;;;;;;6258378;28;20348;-50
2022/06/06 11:37:01;;;;;;;0.30;0.20;;;23.80;45.70;;;;;;6257078;28;20553;-51
2022/06/06 11:40:31;;;;;;;0.20;0.10;;;23.70;46.30;;;;;;6258965;28;20484;-50
2022/06/06 11:44:02;;;;;;;0.25;0.20;;;23.90;45.90;;;;;;6257075;28;20691;-50
2022/06/06 11:47:26;;;;;;;0.10;0.10;;;23.90;45.90;;;;;;6251051;28;20039;-52
2022/06/06 11:50:57;;;;;;;0.17;0.17;;;23.90;45.90;;;;;;6243152;28;21200;-49
2022/06/06 11:54:21;;;;;;;0.10;0.10;;;23.90;46.00;;;;;;6252762;28;20335;-49
2022/06/06 11:57:46;;;;;;;0.17;0.10;;;23.80;45.90;;;;;;6249209;28;20040;-50
2022/06/06 12:01:04;;;;;;;0.10;0.10;;;23.90;45.90;;;;;;6251344;28;20838;-51
2022/06/06 12:04:23;;;;;;;0.10;0.10;;;23.90;46.00;;;;;;6252819;28;21141;-51
2022/06/06 12:07:44;;;;;;;0.20;0.20;;;23.90;46.00;;;;;;6246813;28;20162;-50
2022/06/06 12:11:02;;;;;;;0.20;0.10;;;24.00;46.10;;;;;;6247316;28;20343;-51
2022/06/06 12:14:27;;;;;;;0.30;0.20;;;24.00;46.10;;;;;;6251179;28;20797;-53
2022/06/06 12:17:42;;;;;;;0.20;0.20;;;24.00;46.10;;;;;;6252412;28;20587;-52
2022/06/06 12:21:10;;;;;;;0.20;0.20;;;24.00;46.10;;;;;;6247415;28;20258;-52
2022/06/06 12:24:29;;;;;;;0.20;0.20;;;24.00;46.10;;;;;;6249542;28;20170;-48
2022/06/06 12:27:51;;;;;;;0.32;0.30;;;24.00;46.20;;;;;;6248436;28;20328;-50
2022/06/06 12:31:18;;;;;;;0.10;0.10;;;23.90;46.10;;;;;;6251231;28;20578;-51
2022/06/06 12:34:27;;;;;;;0.10;0.10;;;24.00;46.30;;;;;;6255888;28;20043;-49
2022/06/06 12:37:37;;;;;;;0.00;0.00;;;23.90;46.20;;;;;;6253022;28;20237;-52
2022/06/06 12:40:51;;;;;;;0.10;0.10;;;24.00;46.20;;;;;;6250293;28;20219;-51
2022/06/06 12:43:59;;;;;;;0.10;0.10;;;24.00;46.40;;;;;;6250864;28;20150;-51
2022/06/06 12:47:17;;;;;;;0.20;0.20;;;23.90;46.40;;;;;;6249176;28;20355;-49
2022/06/06 12:50:37;;;;;;;0.20;0.20;;;23.90;46.50;;;;;;6249407;28;20048;-47
2022/06/06 12:54:08;;;;;;;0.10;0.10;;;23.80;46.60;;;;;;6241583;28;20043;-51
2022/06/06 12:57:10;;;;;;;0.10;0.10;;;23.80;46.70;;;;;;6252947;28;20047;-52
2022/06/06 13:00:15;;;;;;;0.10;0.10;;;23.90;46.70;;;;;;6252034;28;20248;-48
2022/06/06 13:03:31;;;;;;;0.10;0.10;;;23.90;46.80;;;;;;6236723;28;20350;-52
2022/06/06 13:06:44;;;;;;;0.10;0.10;;;23.80;46.80;;;;;;6243186;28;20270;-54
2022/06/06 13:10:02;;;;;;;0.20;0.15;;;23.90;46.90;;;;;;6239812;28;20374;-52
2022/06/06 13:13:24;;;;;;;0.10;0.10;;;23.80;46.90;;;;;;6247626;28;20086;-53
2022/06/06 13:16:44;;;;;;;0.10;0.10;;;23.80;46.90;;;;;;6245782;28;20295;-49
2022/06/06 13:20:00;;;;;;;0.52;0.10;;;23.90;47.10;;;;;;6248214;28;20335;-47
2022/06/06 13:23:22;;;;;;;0.10;0.10;;;23.90;47.20;;;;;;6251115;28;21143;-54
2022/06/06 13:26:41;;;;;;;0.10;0.10;;;23.90;47.40;;;;;;6246846;28;20474;-53
2022/06/06 13:29:42;;;;;;;0.10;0.10;;;23.90;47.40;;;;;;6248707;28;20217;-55
2022/06/06 13:32:54;;;;;;;0.57;0.15;;;23.90;47.50;;;;;;6245638;28;21460;-52
2022/06/06 13:36:05;;;;;;;0.28;0.10;;;24.00;47.70;;;;;;6248324;28;20052;-50
2022/06/06 13:39:18;;;;;;;0.17;0.10;;;24.00;47.80;;;;;;6239358;28;20175;-51
2022/06/06 13:42:42;;;;;;;0.10;0.10;;;24.00;47.90;;;;;;6241132;28;20059;-52
2022/06/06 13:45:48;;;;;;;0.10;0.10;;;24.00;48.10;;;;;;6244797;28;20044;-49
2022/06/06 13:49:04;;;;;;;0.10;0.10;;;24.00;48.10;;;;;;6263811;27;20464;-50
2022/06/06 13:52:18;;;;;;;0.20;0.20;;;24.00;48.60;;;;;;6233298;28;20055;-50
2022/06/06 13:55:26;;;;;;;0.10;0.10;;;24.00;48.30;;;;;;6248954;28;20151;-49
2022/06/06 13:58:44;;;;;;;0.20;0.20;;;24.00;48.40;;;;;;6246143;28;20396;-52
2022/06/06 14:01:54;;;;;;;0.20;0.20;;;24.00;48.40;;;;;;6256534;27;20543;-50
2022/06/06 14:05:13;;;;;;;0.15;0.10;;;24.10;48.40;;;;;;6251345;28;20151;-52
2022/06/06 14:08:16;;;;;;;0.10;0.10;;;24.00;48.40;;;;;;6243363;28;20338;-51
2022/06/06 14:11:33;;;;;;;0.10;0.10;;;23.80;48.30;;;;;;6241923;28;20059;-54
2022/06/06 14:14:37;;;;;;;0.10;0.10;;;23.90;48.30;;;;;;6241317;28;20040;-52
2022/06/06 14:17:53;;;;;;;0.10;0.10;;;23.90;48.40;;;;;;6243923;28;20044;-50
2022/06/06 14:20:57;;;;;;;0.10;0.10;;;23.80;48.40;;;;;;6248307;28;20051;-50
2022/06/06 14:24:10;;;;;;;0.10;0.10;;;24.00;48.50;;;;;;6251414;28;20141;-52
2022/06/06 14:27:19;;;;;;;0.10;0.10;;;23.90;48.60;;;;;;6243080;28;20495;-47
2022/06/06 14:30:30;;;;;;;0.10;0.10;;;23.90;48.60;;;;;;6244118;28;20933;-51
2022/06/06 14:33:33;;;;;;;;;;;23.90;48.70;;;;;;6230740;28;20086;-51
2022/06/06 14:36:34;;;;;;;0.13;0.13;;;23.90;48.60;;;;;;6244341;28;21104;-50
2022/06/06 14:39:36;;;;;;;0.10;0.10;;;23.80;48.60;;;;;;6240333;28;20368;-50
2022/06/06 14:42:40;;;;;;;0.13;0.10;;;24.10;49.00;;;;;;6243056;28;20901;-48
2022/06/06 14:45:44;;;;;;;0.20;0.17;;;23.70;49.00;;;;;;6244847;28;20402;-50
2022/06/06 14:48:53;;;;;;;0.10;0.10;;;23.80;49.10;;;;;;6246901;28;20154;-50
2022/06/06 14:51:56;;;;;;;0.10;0.10;;;23.80;49.30;;;;;;6231069;28;20671;-52
2022/06/06 14:55:01;;;;;;;0.20;0.10;;;23.90;49.40;;;;;;6245152;28;20099;-53
2022/06/06 14:58:07;;;;;;;0.10;0.10;;;23.90;49.50;;;;;;6248382;28;20761;-49
2022/06/06 15:01:18;;;;;;;0.20;0.20;;;23.90;49.60;;;;;;6239921;28;20182;-51
2022/06/06 15:04:22;;;;;;;0.10;0.10;;;23.80;49.60;;;;;;6234725;28;20040;-47
2022/06/06 15:07:40;;;;;;;0.10;0.10;;;23.90;49.70;;;;;;6238121;28;20035;-50
2022/06/06 15:10:46;;;;;;;0.20;0.10;;;23.80;49.90;;;;;;6238985;28;20229;-51
2022/06/06 15:13:53;;;;;;;0.10;0.10;;;23.90;50.10;;;;;;6239508;28;20303;-50
2022/06/06 15:16:56;;;;;;;0.20;0.20;;;23.90;50.20;;;;;;6239554;28;20444;-53
2022/06/06 15:20:03;;;;;;;0.30;0.30;;;23.80;50.30;;;;;;6244345;28;20237;-49
2022/06/06 15:23:15;;;;;;;0.20;0.20;;;23.90;50.60;;;;;;6242503;28;20334;-49
2022/06/06 15:26:26;;;;;;;0.20;0.20;;;23.90;51.00;;;;;;6241831;28;20811;-48
2022/06/06 15:29:33;;;;;;;0.10;0.10;;;23.90;51.40;;;;;;6243688;28;20055;-51
2022/06/06 15:32:43;;;;;;;0.20;0.20;;;24.00;51.80;;;;;;6248840;28;20252;-48
2022/06/06 15:35:56;;;;;;;0.10;0.10;;;23.90;52.10;;;;;;6245631;28;20317;-49
2022/06/06 15:39:14;;;;;;;0.25;0.20;;;23.90;52.50;;;;;;6243665;28;20099;-51
2022/06/06 15:42:29;;;;;;;0.20;0.20;;;23.90;52.70;;;;;;6261325;28;20121;-51
2022/06/06 15:45:51;;;;;;;0.10;0.10;;;23.90;52.80;;;;;;6244502;28;20586;-52
2022/06/06 15:49:08;;;;;;;0.20;0.10;;;23.90;53.00;;;;;;6234800;28;20074;-52
2022/06/06 15:52:37;;;;;;;0.10;0.10;;;23.80;53.10;;;;;;6232835;28;20429;-48
2022/06/06 15:55:49;;;;;;;0.20;0.17;;;23.80;53.10;;;;;;6239209;28;20162;-52
2022/06/06 15:59:13;;;;;;;0.20;0.10;;;24.00;53.20;;;;;;6244484;28;20036;-51
2022/06/06 16:02:33;;;;;;;0.10;0.10;;;23.90;53.20;;;;;;6245034;28;20186;-52
2022/06/06 16:05:40;;;;;;;0.20;0.20;;;24.00;53.30;;;;;;6240244;28;20319;-52
2022/06/06 16:09:00;;;;;;;0.20;0.20;;;23.80;53.20;;;;;;6246659;28;20441;-50
2022/06/06 16:12:11;;;;;;;0.20;0.20;;;24.00;53.40;;;;;;6247823;28;20226;-50
2022/06/06 16:15:26;;;;;;;0.25;0.25;;;24.00;53.40;;;;;;6249426;28;20159;-49
2022/06/06 16:18:36;;;;;;;0.20;0.20;;;24.00;53.50;;;;;;6252661;28;20520;-54
2022/06/06 16:21:46;;;;;;;0.30;0.30;;;23.90;53.60;;;;;;6251436;28;20176;-49
2022/06/06 16:24:53;;;;;;;0.30;0.30;;;24.00;53.80;;;;;;6249551;28;20580;-53
2022/06/06 16:28:02;;;;;;;0.30;0.30;;;24.10;53.90;;;;;;6249010;28;20132;-53
2022/06/06 16:31:04;;;;;;;0.30;0.30;;;24.00;54.00;;;;;;6251421;28;20046;-50
2022/06/06 16:34:24;;;;;;;0.20;0.20;;;24.00;54.00;;;;;;6250080;28;20419;-51
2022/06/06 16:37:55;;;;;;;0.20;0.20;;;23.90;54.00;;;;;;6247044;28;20050;-49
2022/06/06 16:47:54;;;;;;;0.23;0.20;;;23.90;54.10;;;;;;6234581;28;20079;-51
2022/06/06 16:48:16;;;;;;;0.20;0.20;;;24.00;54.20;;;;;;6238662;28;20798;-52
2022/06/06 16:51:35;;;;;;;0.15;0.15;;;23.90;54.20;;;;;;6248250;28;20242;-54
2022/06/06 16:54:49;;;;;;;0.10;0.10;;;24.00;54.50;;;;;;6247009;28;20054;-50
2022/06/06 16:58:00;;;;;;;0.30;0.10;;;24.00;54.30;;;;;;6245123;28;20245;-53
2022/06/06 17:01:23;;;;;;;0.10;0.10;;;24.00;54.40;;;;;;6246791;28;20486;-49
2022/06/06 17:04:25;;;;;;;0.15;0.10;;;24.00;54.40;;;;;;6241256;28;20051;-49
2022/06/06 17:10:52;;;;;;;0.50;0.30;;;23.90;54.30;;;;;;6245563;28;20048;-52